This is the latest recevied weather packets stored in our database for station/object K3RUP-1. If no packets are shown the sender has not sent any weather packets the latest 10 day(s).
| Time | Temp. | Humidity | Pressure | Rain* | Wind** | Luminosity | Snow |
|---|---|---|---|---|---|---|---|
| 1777744736 | 16.11° C | 44% | 1012.6 hPa | 0 mm | - | 563 W/m² | - |
| 1777744430 | 16.11° C | 43% | 1012.6 hPa | 0 mm | - | 711 W/m² | - |
| 1777744128 | 15° C | 47% | 1012.6 hPa | 0 mm | - | 762 W/m² | - |
| 1777743824 | 15° C | 45% | 1012.9 hPa | 0 mm | - | 741 W/m² | - |
| 1777743521 | 15° C | 48% | 1013 hPa | 0 mm | - | 656 W/m² | - |
| 1777743218 | 15° C | 49% | 1012.9 hPa | 0 mm | - | 789 W/m² | - |
| 1777742916 | 13.89° C | 52% | 1013 hPa | 0 mm | - | 667 W/m² | - |
| 1777742613 | 15° C | 51% | 1013 hPa | 0 mm | - | 376 W/m² | - |
| 1777742309 | 14.44° C | 54% | 1012.7 hPa | 0 mm | - | 363 W/m² | - |
| 1777742006 | 13.89° C | 55% | 1012.9 hPa | 0 mm | - | 329 W/m² | - |
| 1777741703 | 13.89° C | 52% | 1013.1 hPa | 0 mm | - | 226 W/m² | - |
| 1777741399 | 13.33° C | 57% | 1013.2 hPa | 0 mm | - | 305 W/m² | - |
| 1777741095 | 13.89° C | 53% | 1013.1 hPa | 0 mm | - | 281 W/m² | - |
| 1777740793 | 14.44° C | 54% | 1013.2 hPa | 0 mm | - | 261 W/m² | - |
| 1777740489 | 14.44° C | 55% | 1013.2 hPa | 0 mm | - | 262 W/m² | - |
| 1777740187 | 13.89° C | 53% | 1013.1 hPa | 0 mm | - | 405 W/m² | - |
| 1777739883 | 13.33° C | 54% | 1013.2 hPa | 0 mm | - | 513 W/m² | - |
| 1777739578 | 13.89° C | 53% | 1013.2 hPa | 0 mm | - | 365 W/m² | - |
| 1777739276 | 13.89° C | 55% | 1013.1 hPa | 0 mm | - | 244 W/m² | - |
| 1777738972 | 13.89° C | 52% | 1013.3 hPa | 0 mm | - | 272 W/m² | - |
| 1777738669 | 13.33° C | 55% | 1013.7 hPa | 0 mm | - | 225 W/m² | - |
| 1777738360 | 13.33° C | 52% | 1013.6 hPa | 0 mm | - | 238 W/m² | - |
| 1777738058 | 13.33° C | 52% | 1013.3 hPa | 0 mm | - | 232 W/m² | - |
| 1777737757 | 13.33° C | 54% | 1013.5 hPa | 0 mm | - | 258 W/m² | - |
| 1777737455 | 12.78° C | 55% | 1013.8 hPa | 0 mm | - | 222 W/m² | - |
* Rain latest hour (hover to see other rain measurements)
** Current wind speed in m/s (hover to see current wind gust speed)